sensor_id;sensor_type;location;lat;lon;timestamp;P1;durP1;ratioP1;P2;durP2;ratioP2
22829;SDS011;11581;51.250;6.778;2023-02-15T00:01:34;20.35;;;12.80;;
22829;SDS011;11581;51.250;6.778;2023-02-15T00:04:02;18.65;;;11.98;;
22829;SDS011;11581;51.250;6.778;2023-02-15T00:06:31;18.83;;;11.63;;
22829;SDS011;11581;51.250;6.778;2023-02-15T00:08:59;19.00;;;12.07;;
22829;SDS011;11581;51.250;6.778;2023-02-15T00:11:26;18.60;;;12.73;;
22829;SDS011;11581;51.250;6.778;2023-02-15T00:14:16;19.38;;;12.05;;
22829;SDS011;11581;51.250;6.778;2023-02-15T00:16:48;18.90;;;12.20;;
22829;SDS011;11581;51.250;6.778;2023-02-15T00:19:15;19.08;;;12.88;;
22829;SDS011;11581;51.250;6.778;2023-02-15T00:21:45;17.63;;;12.35;;
22829;SDS011;11581;51.250;6.778;2023-02-15T00:24:14;18.23;;;11.90;;
22829;SDS011;11581;51.250;6.778;2023-02-15T00:26:42;21.92;;;13.20;;
22829;SDS011;11581;51.250;6.778;2023-02-15T00:29:10;19.63;;;12.52;;
22829;SDS011;11581;51.250;6.778;2023-02-15T00:31:38;18.98;;;12.52;;
22829;SDS011;11581;51.250;6.778;2023-02-15T00:34:05;20.27;;;13.13;;
22829;SDS011;11581;51.250;6.778;2023-02-15T00:36:37;19.85;;;12.57;;
22829;SDS011;11581;51.250;6.778;2023-02-15T00:39:05;23.33;;;12.95;;
22829;SDS011;11581;51.250;6.778;2023-02-15T00:41:32;21.83;;;13.27;;
22829;SDS011;11581;51.250;6.778;2023-02-15T00:44:00;22.67;;;13.43;;
22829;SDS011;11581;51.250;6.778;2023-02-15T00:46:28;22.85;;;12.93;;
22829;SDS011;11581;51.250;6.778;2023-02-15T00:48:55;22.75;;;12.70;;
22829;SDS011;11581;51.250;6.778;2023-02-15T00:51:22;22.35;;;14.27;;
22829;SDS011;11581;51.250;6.778;2023-02-15T00:53:49;22.08;;;13.50;;
22829;SDS011;11581;51.250;6.778;2023-02-15T00:56:18;21.33;;;13.55;;
22829;SDS011;11581;51.250;6.778;2023-02-15T00:58:45;20.88;;;12.68;;
22829;SDS011;11581;51.250;6.778;2023-02-15T01:01:13;19.63;;;12.85;;
22829;SDS011;11581;51.250;6.778;2023-02-15T01:03:42;20.38;;;13.35;;
22829;SDS011;11581;51.250;6.778;2023-02-15T01:06:09;21.50;;;13.15;;
22829;SDS011;11581;51.250;6.778;2023-02-15T01:08:36;18.92;;;12.57;;
22829;SDS011;11581;51.250;6.778;2023-02-15T01:11:08;21.88;;;13.43;;
22829;SDS011;11581;51.250;6.778;2023-02-15T01:13:38;21.73;;;13.75;;
22829;SDS011;11581;51.250;6.778;2023-02-15T01:16:05;22.83;;;13.77;;
22829;SDS011;11581;51.250;6.778;2023-02-15T01:18:33;19.45;;;13.35;;
22829;SDS011;11581;51.250;6.778;2023-02-15T01:21:08;20.55;;;13.20;;
22829;SDS011;11581;51.250;6.778;2023-02-15T01:23:36;21.42;;;14.27;;
22829;SDS011;11581;51.250;6.778;2023-02-15T01:26:04;21.38;;;13.52;;
22829;SDS011;11581;51.250;6.778;2023-02-15T01:28:31;19.38;;;12.65;;
22829;SDS011;11581;51.250;6.778;2023-02-15T01:31:03;21.10;;;14.13;;
22829;SDS011;11581;51.250;6.778;2023-02-15T01:33:31;21.83;;;13.07;;
22829;SDS011;11581;51.250;6.778;2023-02-15T01:35:58;20.10;;;12.63;;
22829;SDS011;11581;51.250;6.778;2023-02-15T01:38:25;21.17;;;13.85;;
22829;SDS011;11581;51.250;6.778;2023-02-15T01:40:53;23.45;;;14.85;;
22829;SDS011;11581;51.250;6.778;2023-02-15T01:43:45;19.63;;;12.73;;
22829;SDS011;11581;51.250;6.778;2023-02-15T01:46:16;20.42;;;13.73;;
22829;SDS011;11581;51.250;6.778;2023-02-15T01:48:46;20.88;;;14.32;;
22829;SDS011;11581;51.250;6.778;2023-02-15T01:51:16;22.77;;;14.00;;
22829;SDS011;11581;51.250;6.778;2023-02-15T01:53:48;19.70;;;12.50;;
22829;SDS011;11581;51.250;6.778;2023-02-15T01:56:19;20.65;;;13.88;;
22829;SDS011;11581;51.250;6.778;2023-02-15T01:58:49;23.08;;;14.30;;
22829;SDS011;11581;51.250;6.778;2023-02-15T02:01:19;22.38;;;14.00;;
22829;SDS011;11581;51.250;6.778;2023-02-15T02:03:50;20.92;;;12.90;;
22829;SDS011;11581;51.250;6.778;2023-02-15T02:06:23;20.40;;;13.13;;
22829;SDS011;11581;51.250;6.778;2023-02-15T02:08:51;21.92;;;13.88;;
22829;SDS011;11581;51.250;6.778;2023-02-15T02:11:19;20.73;;;13.18;;
22829;SDS011;11581;51.250;6.778;2023-02-15T02:13:46;23.10;;;13.25;;
22829;SDS011;11581;51.250;6.778;2023-02-15T02:16:16;19.67;;;12.77;;
22829;SDS011;11581;51.250;6.778;2023-02-15T02:18:53;21.75;;;13.40;;
22829;SDS011;11581;51.250;6.778;2023-02-15T02:24:35;20.40;;;13.40;;
22829;SDS011;11581;51.250;6.778;2023-02-15T02:27:23;20.02;;;12.90;;
22829;SDS011;11581;51.250;6.778;2023-02-15T02:33:15;20.70;;;13.15;;
22829;SDS011;11581;51.250;6.778;2023-02-15T02:35:48;20.00;;;12.63;;
22829;SDS011;11581;51.250;6.778;2023-02-15T02:38:27;21.90;;;13.57;;
22829;SDS011;11581;51.250;6.778;2023-02-15T02:41:02;19.05;;;12.82;;
22829;SDS011;11581;51.250;6.778;2023-02-15T02:43:40;24.50;;;14.38;;
22829;SDS011;11581;51.250;6.778;2023-02-15T02:46:15;20.23;;;13.55;;
22829;SDS011;11581;51.250;6.778;2023-02-15T02:48:47;19.77;;;13.30;;
22829;SDS011;11581;51.250;6.778;2023-02-15T02:51:16;21.20;;;13.30;;
22829;SDS011;11581;51.250;6.778;2023-02-15T02:53:47;20.35;;;13.45;;
22829;SDS011;11581;51.250;6.778;2023-02-15T02:56:18;22.55;;;13.70;;
22829;SDS011;11581;51.250;6.778;2023-02-15T02:58:51;23.27;;;14.45;;
22829;SDS011;11581;51.250;6.778;2023-02-15T03:01:27;24.02;;;14.18;;
22829;SDS011;11581;51.250;6.778;2023-02-15T03:04:02;21.90;;;13.45;;
22829;SDS011;11581;51.250;6.778;2023-02-15T03:06:35;22.10;;;13.88;;
22829;SDS011;11581;51.250;6.778;2023-02-15T03:11:40;20.00;;;11.93;;
22829;SDS011;11581;51.250;6.778;2023-02-15T03:14:09;22.10;;;13.07;;
22829;SDS011;11581;51.250;6.778;2023-02-15T03:16:38;22.02;;;13.38;;
22829;SDS011;11581;51.250;6.778;2023-02-15T03:19:12;21.27;;;13.52;;
22829;SDS011;11581;51.250;6.778;2023-02-15T03:21:44;20.80;;;12.95;;
22829;SDS011;11581;51.250;6.778;2023-02-15T03:24:23;20.67;;;13.55;;
22829;SDS011;11581;51.250;6.778;2023-02-15T03:26:55;22.70;;;13.50;;
22829;SDS011;11581;51.250;6.778;2023-02-15T03:29:25;21.45;;;13.73;;
22829;SDS011;11581;51.250;6.778;2023-02-15T03:31:56;23.40;;;13.68;;
22829;SDS011;11581;51.250;6.778;2023-02-15T03:34:28;21.55;;;13.43;;
22829;SDS011;11581;51.250;6.778;2023-02-15T03:36:57;21.67;;;13.27;;
22829;SDS011;11581;51.250;6.778;2023-02-15T03:39:30;22.85;;;14.00;;
22829;SDS011;11581;51.250;6.778;2023-02-15T03:42:04;20.33;;;13.18;;
22829;SDS011;11581;51.250;6.778;2023-02-15T03:44:36;20.63;;;13.93;;
22829;SDS011;11581;51.250;6.778;2023-02-15T03:47:13;21.85;;;13.75;;
22829;SDS011;11581;51.250;6.778;2023-02-15T03:49:47;21.85;;;13.55;;
22829;SDS011;11581;51.250;6.778;2023-02-15T03:52:18;21.38;;;13.23;;
22829;SDS011;11581;51.250;6.778;2023-02-15T03:54:48;22.70;;;14.13;;
22829;SDS011;11581;51.250;6.778;2023-02-15T03:57:18;20.77;;;12.88;;
22829;SDS011;11581;51.250;6.778;2023-02-15T04:00:19;21.65;;;13.57;;
22829;SDS011;11581;51.250;6.778;2023-02-15T04:03:17;20.98;;;13.55;;
22829;SDS011;11581;51.250;6.778;2023-02-15T04:05:51;21.95;;;13.77;;
22829;SDS011;11581;51.250;6.778;2023-02-15T04:08:18;22.00;;;13.48;;
22829;SDS011;11581;51.250;6.778;2023-02-15T04:10:44;23.60;;;14.43;;
22829;SDS011;11581;51.250;6.778;2023-02-15T04:13:21;19.55;;;12.45;;
22829;SDS011;11581;51.250;6.778;2023-02-15T04:15:49;20.38;;;13.38;;
22829;SDS011;11581;51.250;6.778;2023-02-15T04:18:30;22.55;;;13.60;;
22829;SDS011;11581;51.250;6.778;2023-02-15T04:21:17;21.20;;;13.40;;
22829;SDS011;11581;51.250;6.778;2023-02-15T04:24:01;23.88;;;13.70;;
22829;SDS011;11581;51.250;6.778;2023-02-15T04:29:14;19.67;;;12.23;;
22829;SDS011;11581;51.250;6.778;2023-02-15T04:31:41;21.65;;;13.48;;
22829;SDS011;11581;51.250;6.778;2023-02-15T04:34:09;20.63;;;12.35;;
22829;SDS011;11581;51.250;6.778;2023-02-15T04:36:40;20.38;;;13.20;;
22829;SDS011;11581;51.250;6.778;2023-02-15T04:39:07;21.35;;;14.10;;
22829;SDS011;11581;51.250;6.778;2023-02-15T04:41:34;22.52;;;14.23;;
22829;SDS011;11581;51.250;6.778;2023-02-15T04:44:01;20.55;;;13.35;;
22829;SDS011;11581;51.250;6.778;2023-02-15T04:46:29;19.20;;;12.75;;
22829;SDS011;11581;51.250;6.778;2023-02-15T04:48:57;22.77;;;14.18;;
22829;SDS011;11581;51.250;6.778;2023-02-15T04:51:24;23.58;;;13.48;;
22829;SDS011;11581;51.250;6.778;2023-02-15T04:53:52;22.33;;;13.70;;
22829;SDS011;11581;51.250;6.778;2023-02-15T04:56:20;20.23;;;13.00;;
22829;SDS011;11581;51.250;6.778;2023-02-15T04:58:47;20.80;;;14.10;;
22829;SDS011;11581;51.250;6.778;2023-02-15T05:01:14;23.38;;;13.15;;
22829;SDS011;11581;51.250;6.778;2023-02-15T05:03:41;20.48;;;13.18;;
22829;SDS011;11581;51.250;6.778;2023-02-15T05:06:07;22.80;;;14.52;;
22829;SDS011;11581;51.250;6.778;2023-02-15T05:08:35;22.75;;;13.73;;
22829;SDS011;11581;51.250;6.778;2023-02-15T05:11:04;21.52;;;13.75;;
22829;SDS011;11581;51.250;6.778;2023-02-15T05:13:30;22.67;;;12.52;;
22829;SDS011;11581;51.250;6.778;2023-02-15T05:15:57;21.60;;;13.75;;
22829;SDS011;11581;51.250;6.778;2023-02-15T05:18:24;23.17;;;13.93;;
22829;SDS011;11581;51.250;6.778;2023-02-15T05:20:51;20.48;;;12.98;;
22829;SDS011;11581;51.250;6.778;2023-02-15T05:23:18;23.85;;;13.88;;
22829;SDS011;11581;51.250;6.778;2023-02-15T05:25:46;25.40;;;14.15;;
22829;SDS011;11581;51.250;6.778;2023-02-15T05:28:33;20.73;;;12.45;;
22829;SDS011;11581;51.250;6.778;2023-02-15T05:31:02;21.15;;;12.93;;
22829;SDS011;11581;51.250;6.778;2023-02-15T05:33:30;22.70;;;13.40;;
22829;SDS011;11581;51.250;6.778;2023-02-15T05:35:58;21.95;;;13.63;;
22829;SDS011;11581;51.250;6.778;2023-02-15T05:38:25;18.98;;;11.70;;
22829;SDS011;11581;51.250;6.778;2023-02-15T05:40:52;22.45;;;14.02;;
22829;SDS011;11581;51.250;6.778;2023-02-15T05:43:20;21.27;;;13.07;;
22829;SDS011;11581;51.250;6.778;2023-02-15T05:45:50;22.08;;;12.57;;
22829;SDS011;11581;51.250;6.778;2023-02-15T05:48:18;21.38;;;12.90;;
22829;SDS011;11581;51.250;6.778;2023-02-15T05:50:46;21.90;;;13.13;;
22829;SDS011;11581;51.250;6.778;2023-02-15T05:53:23;22.42;;;13.50;;
22829;SDS011;11581;51.250;6.778;2023-02-15T05:55:50;20.20;;;12.90;;
22829;SDS011;11581;51.250;6.778;2023-02-15T05:58:18;22.15;;;13.43;;
22829;SDS011;11581;51.250;6.778;2023-02-15T06:00:46;19.92;;;12.52;;
22829;SDS011;11581;51.250;6.778;2023-02-15T06:03:14;22.08;;;12.82;;
22829;SDS011;11581;51.250;6.778;2023-02-15T06:05:41;20.05;;;13.02;;
22829;SDS011;11581;51.250;6.778;2023-02-15T06:08:08;21.60;;;13.25;;
22829;SDS011;11581;51.250;6.778;2023-02-15T06:10:38;20.42;;;12.65;;
22829;SDS011;11581;51.250;6.778;2023-02-15T06:13:05;22.80;;;12.88;;
22829;SDS011;11581;51.250;6.778;2023-02-15T06:15:32;23.30;;;13.27;;
22829;SDS011;11581;51.250;6.778;2023-02-15T06:17:59;19.77;;;12.95;;
22829;SDS011;11581;51.250;6.778;2023-02-15T06:20:27;20.10;;;12.20;;
22829;SDS011;11581;51.250;6.778;2023-02-15T06:22:54;18.70;;;12.48;;
22829;SDS011;11581;51.250;6.778;2023-02-15T06:25:21;21.73;;;12.93;;
22829;SDS011;11581;51.250;6.778;2023-02-15T06:27:49;22.35;;;13.32;;
22829;SDS011;11581;51.250;6.778;2023-02-15T06:30:17;22.23;;;13.18;;
22829;SDS011;11581;51.250;6.778;2023-02-15T06:32:44;22.33;;;13.25;;
22829;SDS011;11581;51.250;6.778;2023-02-15T06:35:11;20.63;;;12.18;;
22829;SDS011;11581;51.250;6.778;2023-02-15T06:37:39;19.58;;;11.50;;
22829;SDS011;11581;51.250;6.778;2023-02-15T06:40:07;23.63;;;13.38;;
22829;SDS011;11581;51.250;6.778;2023-02-15T06:42:35;19.00;;;12.52;;
22829;SDS011;11581;51.250;6.778;2023-02-15T06:45:02;19.10;;;12.60;;
22829;SDS011;11581;51.250;6.778;2023-02-15T06:47:29;20.85;;;13.10;;
22829;SDS011;11581;51.250;6.778;2023-02-15T06:49:56;19.77;;;12.27;;
22829;SDS011;11581;51.250;6.778;2023-02-15T06:52:23;21.23;;;11.90;;
22829;SDS011;11581;51.250;6.778;2023-02-15T06:54:52;21.25;;;13.10;;
22829;SDS011;11581;51.250;6.778;2023-02-15T06:57:19;21.10;;;13.23;;
22829;SDS011;11581;51.250;6.778;2023-02-15T06:59:46;18.45;;;11.65;;
22829;SDS011;11581;51.250;6.778;2023-02-15T07:02:13;18.00;;;10.95;;
22829;SDS011;11581;51.250;6.778;2023-02-15T07:04:40;20.38;;;12.23;;
22829;SDS011;11581;51.250;6.778;2023-02-15T07:07:07;21.70;;;12.07;;
22829;SDS011;11581;51.250;6.778;2023-02-15T07:09:35;20.70;;;12.63;;
22829;SDS011;11581;51.250;6.778;2023-02-15T07:12:04;18.77;;;12.00;;
22829;SDS011;11581;51.250;6.778;2023-02-15T07:14:49;19.48;;;12.38;;
22829;SDS011;11581;51.250;6.778;2023-02-15T07:17:15;22.40;;;12.73;;
22829;SDS011;11581;51.250;6.778;2023-02-15T07:19:42;19.25;;;11.85;;
22829;SDS011;11581;51.250;6.778;2023-02-15T07:22:09;21.02;;;12.52;;
22829;SDS011;11581;51.250;6.778;2023-02-15T07:24:36;18.42;;;11.15;;
22829;SDS011;11581;51.250;6.778;2023-02-15T07:27:05;21.13;;;12.82;;
22829;SDS011;11581;51.250;6.778;2023-02-15T07:29:33;17.10;;;11.82;;
22829;SDS011;11581;51.250;6.778;2023-02-15T07:32:01;20.48;;;12.43;;
22829;SDS011;11581;51.250;6.778;2023-02-15T07:34:28;16.83;;;11.05;;
22829;SDS011;11581;51.250;6.778;2023-02-15T07:36:55;17.73;;;11.13;;
22829;SDS011;11581;51.250;6.778;2023-02-15T07:39:22;18.52;;;12.10;;
22829;SDS011;11581;51.250;6.778;2023-02-15T07:41:50;17.80;;;11.80;;
22829;SDS011;11581;51.250;6.778;2023-02-15T07:44:18;19.65;;;11.75;;
22829;SDS011;11581;51.250;6.778;2023-02-15T07:46:45;21.65;;;13.02;;
22829;SDS011;11581;51.250;6.778;2023-02-15T07:49:12;16.15;;;11.38;;
22829;SDS011;11581;51.250;6.778;2023-02-15T07:51:40;16.63;;;11.40;;
22829;SDS011;11581;51.250;6.778;2023-02-15T07:54:07;18.55;;;10.98;;
22829;SDS011;11581;51.250;6.778;2023-02-15T07:56:33;15.43;;;11.50;;
22829;SDS011;11581;51.250;6.778;2023-02-15T07:59:00;16.50;;;10.40;;
22829;SDS011;11581;51.250;6.778;2023-02-15T08:01:31;15.27;;;11.23;;
22829;SDS011;11581;51.250;6.778;2023-02-15T08:04:00;16.13;;;10.32;;
22829;SDS011;11581;51.250;6.778;2023-02-15T08:06:29;15.13;;;10.52;;
22829;SDS011;11581;51.250;6.778;2023-02-15T08:08:58;15.95;;;11.48;;
22829;SDS011;11581;51.250;6.778;2023-02-15T08:11:26;17.30;;;10.20;;
22829;SDS011;11581;51.250;6.778;2023-02-15T08:14:03;16.98;;;10.30;;
22829;SDS011;11581;51.250;6.778;2023-02-15T08:16:34;17.80;;;10.80;;
22829;SDS011;11581;51.250;6.778;2023-02-15T08:19:03;13.48;;;9.77;;
22829;SDS011;11581;51.250;6.778;2023-02-15T08:21:32;15.30;;;9.70;;
22829;SDS011;11581;51.250;6.778;2023-02-15T08:24:00;14.05;;;9.93;;
22829;SDS011;11581;51.250;6.778;2023-02-15T08:26:30;14.57;;;9.85;;
22829;SDS011;11581;51.250;6.778;2023-02-15T08:28:57;19.17;;;9.70;;
22829;SDS011;11581;51.250;6.778;2023-02-15T08:31:25;14.40;;;9.27;;
22829;SDS011;11581;51.250;6.778;2023-02-15T08:33:54;13.15;;;9.45;;
22829;SDS011;11581;51.250;6.778;2023-02-15T08:36:24;13.55;;;9.43;;
22829;SDS011;11581;51.250;6.778;2023-02-15T08:38:52;15.38;;;8.73;;
22829;SDS011;11581;51.250;6.778;2023-02-15T08:41:21;12.43;;;8.63;;
22829;SDS011;11581;51.250;6.778;2023-02-15T08:43:52;13.45;;;9.75;;
22829;SDS011;11581;51.250;6.778;2023-02-15T08:46:21;12.73;;;8.75;;
22829;SDS011;11581;51.250;6.778;2023-02-15T08:48:49;14.40;;;9.55;;
22829;SDS011;11581;51.250;6.778;2023-02-15T08:51:18;12.27;;;8.48;;
22829;SDS011;11581;51.250;6.778;2023-02-15T08:53:47;12.80;;;8.75;;
22829;SDS011;11581;51.250;6.778;2023-02-15T08:56:16;12.38;;;8.30;;
22829;SDS011;11581;51.250;6.778;2023-02-15T08:58:44;15.40;;;9.50;;
22829;SDS011;11581;51.250;6.778;2023-02-15T09:01:12;12.45;;;8.93;;
22829;SDS011;11581;51.250;6.778;2023-02-15T09:03:43;13.73;;;9.35;;
22829;SDS011;11581;51.250;6.778;2023-02-15T09:06:10;13.00;;;8.98;;
22829;SDS011;11581;51.250;6.778;2023-02-15T09:08:39;12.77;;;8.90;;
22829;SDS011;11581;51.250;6.778;2023-02-15T09:11:09;13.15;;;9.18;;
22829;SDS011;11581;51.250;6.778;2023-02-15T09:13:41;11.70;;;8.32;;
22829;SDS011;11581;51.250;6.778;2023-02-15T09:16:09;16.30;;;9.13;;
22829;SDS011;11581;51.250;6.778;2023-02-15T09:18:37;12.30;;;8.93;;
22829;SDS011;11581;51.250;6.778;2023-02-15T09:21:05;13.65;;;9.02;;
22829;SDS011;11581;51.250;6.778;2023-02-15T09:23:34;14.40;;;9.25;;
22829;SDS011;11581;51.250;6.778;2023-02-15T09:26:04;13.90;;;8.60;;
22829;SDS011;11581;51.250;6.778;2023-02-15T09:28:33;12.98;;;9.20;;
22829;SDS011;11581;51.250;6.778;2023-02-15T09:31:04;13.30;;;8.55;;
22829;SDS011;11581;51.250;6.778;2023-02-15T09:33:36;12.73;;;9.57;;
22829;SDS011;11581;51.250;6.778;2023-02-15T09:36:04;12.98;;;8.70;;
22829;SDS011;11581;51.250;6.778;2023-02-15T09:38:32;13.32;;;8.57;;
22829;SDS011;11581;51.250;6.778;2023-02-15T09:41:04;15.38;;;8.98;;
22829;SDS011;11581;51.250;6.778;2023-02-15T09:43:42;11.82;;;8.05;;
22829;SDS011;11581;51.250;6.778;2023-02-15T09:46:24;13.27;;;8.27;;
22829;SDS011;11581;51.250;6.778;2023-02-15T09:49:03;14.40;;;8.60;;
22829;SDS011;11581;51.250;6.778;2023-02-15T09:51:52;14.27;;;8.65;;
22829;SDS011;11581;51.250;6.778;2023-02-15T09:54:41;12.65;;;8.13;;
22829;SDS011;11581;51.250;6.778;2023-02-15T09:57:23;12.90;;;8.57;;
22829;SDS011;11581;51.250;6.778;2023-02-15T09:59:59;15.23;;;8.48;;
22829;SDS011;11581;51.250;6.778;2023-02-15T10:02:41;12.80;;;8.52;;
22829;SDS011;11581;51.250;6.778;2023-02-15T10:05:23;10.98;;;7.38;;
22829;SDS011;11581;51.250;6.778;2023-02-15T10:08:06;11.52;;;8.30;;
22829;SDS011;11581;51.250;6.778;2023-02-15T10:10:57;12.63;;;7.95;;
22829;SDS011;11581;51.250;6.778;2023-02-15T10:13:51;11.45;;;7.95;;
22829;SDS011;11581;51.250;6.778;2023-02-15T10:16:26;10.88;;;6.97;;
22829;SDS011;11581;51.250;6.778;2023-02-15T10:19:04;16.50;;;8.45;;
22829;SDS011;11581;51.250;6.778;2023-02-15T10:21:46;11.88;;;7.38;;
22829;SDS011;11581;51.250;6.778;2023-02-15T10:24:29;11.20;;;7.82;;
22829;SDS011;11581;51.250;6.778;2023-02-15T10:27:07;14.73;;;7.85;;
22829;SDS011;11581;51.250;6.778;2023-02-15T10:29:41;11.82;;;7.78;;
22829;SDS011;11581;51.250;6.778;2023-02-15T10:32:19;11.95;;;7.43;;
22829;SDS011;11581;51.250;6.778;2023-02-15T10:34:51;11.05;;;7.78;;
22829;SDS011;11581;51.250;6.778;2023-02-15T10:40:20;12.80;;;7.63;;
22829;SDS011;11581;51.250;6.778;2023-02-15T10:42:59;11.10;;;7.38;;
22829;SDS011;11581;51.250;6.778;2023-02-15T10:45:40;11.65;;;7.72;;
22829;SDS011;11581;51.250;6.778;2023-02-15T10:48:26;10.77;;;7.55;;
22829;SDS011;11581;51.250;6.778;2023-02-15T10:51:14;12.85;;;7.40;;
22829;SDS011;11581;51.250;6.778;2023-02-15T10:56:45;10.88;;;7.82;;
22829;SDS011;11581;51.250;6.778;2023-02-15T10:59:27;11.00;;;7.25;;
22829;SDS011;11581;51.250;6.778;2023-02-15T11:02:08;11.63;;;6.93;;
22829;SDS011;11581;51.250;6.778;2023-02-15T11:04:48;11.25;;;6.85;;
22829;SDS011;11581;51.250;6.778;2023-02-15T11:07:29;12.18;;;7.20;;
22829;SDS011;11581;51.250;6.778;2023-02-15T11:10:01;10.40;;;7.25;;
22829;SDS011;11581;51.250;6.778;2023-02-15T11:12:38;11.50;;;7.70;;
22829;SDS011;11581;51.250;6.778;2023-02-15T11:15:11;9.60;;;6.72;;
22829;SDS011;11581;51.250;6.778;2023-02-15T11:17:46;10.88;;;6.72;;
22829;SDS011;11581;51.250;6.778;2023-02-15T11:20:18;11.18;;;7.10;;
22829;SDS011;11581;51.250;6.778;2023-02-15T11:25:20;8.95;;;6.07;;
22829;SDS011;11581;51.250;6.778;2023-02-15T11:27:52;10.63;;;6.53;;
22829;SDS011;11581;51.250;6.778;2023-02-15T11:30:22;11.27;;;7.78;;
22829;SDS011;11581;51.250;6.778;2023-02-15T11:32:52;11.80;;;6.57;;
22829;SDS011;11581;51.250;6.778;2023-02-15T11:35:24;10.70;;;7.18;;
22829;SDS011;11581;51.250;6.778;2023-02-15T11:37:54;11.18;;;7.85;;
22829;SDS011;11581;51.250;6.778;2023-02-15T11:40:28;10.90;;;7.10;;
22829;SDS011;11581;51.250;6.778;2023-02-15T11:43:00;11.60;;;7.63;;
22829;SDS011;11581;51.250;6.778;2023-02-15T11:45:35;11.55;;;6.97;;
22829;SDS011;11581;51.250;6.778;2023-02-15T11:48:08;12.63;;;7.85;;
22829;SDS011;11581;51.250;6.778;2023-02-15T11:50:37;10.27;;;7.05;;
22829;SDS011;11581;51.250;6.778;2023-02-15T11:53:06;12.00;;;7.07;;
22829;SDS011;11581;51.250;6.778;2023-02-15T11:55:43;10.27;;;6.63;;
22829;SDS011;11581;51.250;6.778;2023-02-15T11:58:14;12.65;;;6.50;;
22829;SDS011;11581;51.250;6.778;2023-02-15T12:00:50;10.20;;;7.28;;
22829;SDS011;11581;51.250;6.778;2023-02-15T12:03:24;10.32;;;6.32;;
22829;SDS011;11581;51.250;6.778;2023-02-15T12:05:56;10.23;;;6.25;;
22829;SDS011;11581;51.250;6.778;2023-02-15T12:08:29;9.77;;;6.60;;
22829;SDS011;11581;51.250;6.778;2023-02-15T12:11:06;10.75;;;7.10;;
22829;SDS011;11581;51.250;6.778;2023-02-15T12:13:53;9.43;;;6.53;;
22829;SDS011;11581;51.250;6.778;2023-02-15T12:16:24;11.75;;;6.82;;
22829;SDS011;11581;51.250;6.778;2023-02-15T12:18:56;11.70;;;6.93;;
22829;SDS011;11581;51.250;6.778;2023-02-15T12:21:25;13.85;;;7.50;;
22829;SDS011;11581;51.250;6.778;2023-02-15T12:23:56;9.48;;;6.35;;
22829;SDS011;11581;51.250;6.778;2023-02-15T12:26:26;11.80;;;6.88;;
22829;SDS011;11581;51.250;6.778;2023-02-15T12:28:57;12.10;;;6.93;;
22829;SDS011;11581;51.250;6.778;2023-02-15T12:31:28;8.90;;;6.53;;
22829;SDS011;11581;51.250;6.778;2023-02-15T12:34:01;15.43;;;6.60;;
22829;SDS011;11581;51.250;6.778;2023-02-15T12:36:40;8.43;;;5.72;;
22829;SDS011;11581;51.250;6.778;2023-02-15T12:39:21;10.73;;;6.50;;
22829;SDS011;11581;51.250;6.778;2023-02-15T12:41:59;11.68;;;6.68;;
22829;SDS011;11581;51.250;6.778;2023-02-15T12:44:30;11.25;;;6.88;;
22829;SDS011;11581;51.250;6.778;2023-02-15T12:46:59;10.18;;;6.20;;
22829;SDS011;11581;51.250;6.778;2023-02-15T12:49:29;11.05;;;6.40;;
22829;SDS011;11581;51.250;6.778;2023-02-15T12:51:57;9.57;;;6.40;;
22829;SDS011;11581;51.250;6.778;2023-02-15T12:54:28;11.38;;;6.60;;
22829;SDS011;11581;51.250;6.778;2023-02-15T12:56:57;11.05;;;6.78;;
22829;SDS011;11581;51.250;6.778;2023-02-15T12:59:25;10.90;;;5.90;;
22829;SDS011;11581;51.250;6.778;2023-02-15T13:01:52;8.65;;;6.10;;
22829;SDS011;11581;51.250;6.778;2023-02-15T13:04:24;9.05;;;6.28;;
22829;SDS011;11581;51.250;6.778;2023-02-15T13:06:57;12.27;;;6.65;;
22829;SDS011;11581;51.250;6.778;2023-02-15T13:09:34;9.52;;;6.22;;
22829;SDS011;11581;51.250;6.778;2023-02-15T13:12:10;8.88;;;6.00;;
22829;SDS011;11581;51.250;6.778;2023-02-15T13:14:44;10.35;;;6.93;;
22829;SDS011;11581;51.250;6.778;2023-02-15T13:17:12;9.73;;;6.13;;
22829;SDS011;11581;51.250;6.778;2023-02-15T13:19:43;10.55;;;6.65;;
22829;SDS011;11581;51.250;6.778;2023-02-15T13:22:16;11.57;;;6.43;;
22829;SDS011;11581;51.250;6.778;2023-02-15T13:24:47;10.85;;;6.80;;
22829;SDS011;11581;51.250;6.778;2023-02-15T13:27:16;9.55;;;5.93;;
22829;SDS011;11581;51.250;6.778;2023-02-15T13:29:48;9.55;;;5.97;;
22829;SDS011;11581;51.250;6.778;2023-02-15T13:32:22;8.95;;;5.93;;
22829;SDS011;11581;51.250;6.778;2023-02-15T13:34:57;13.48;;;6.25;;
22829;SDS011;11581;51.250;6.778;2023-02-15T13:37:34;11.45;;;6.57;;
22829;SDS011;11581;51.250;6.778;2023-02-15T13:40:18;9.35;;;5.70;;
22829;SDS011;11581;51.250;6.778;2023-02-15T13:42:53;9.20;;;6.30;;
22829;SDS011;11581;51.250;6.778;2023-02-15T13:45:30;11.68;;;6.25;;
22829;SDS011;11581;51.250;6.778;2023-02-15T13:48:07;10.90;;;6.10;;
22829;SDS011;11581;51.250;6.778;2023-02-15T13:50:46;11.27;;;6.47;;
22829;SDS011;11581;51.250;6.778;2023-02-15T13:56:31;9.32;;;6.20;;
22829;SDS011;11581;51.250;6.778;2023-02-15T13:59:13;9.73;;;6.28;;
22829;SDS011;11581;51.250;6.778;2023-02-15T14:01:53;10.98;;;6.38;;
22829;SDS011;11581;51.250;6.778;2023-02-15T14:07:25;9.25;;;6.13;;
22829;SDS011;11581;51.250;6.778;2023-02-15T14:10:02;8.07;;;5.28;;
22829;SDS011;11581;51.250;6.778;2023-02-15T14:12:57;8.65;;;5.93;;
22829;SDS011;11581;51.250;6.778;2023-02-15T14:15:46;11.30;;;5.55;;
22829;SDS011;11581;51.250;6.778;2023-02-15T14:18:19;9.10;;;5.63;;
22829;SDS011;11581;51.250;6.778;2023-02-15T14:20:56;13.85;;;5.90;;
22829;SDS011;11581;51.250;6.778;2023-02-15T14:23:35;9.07;;;5.68;;
22829;SDS011;11581;51.250;6.778;2023-02-15T14:26:14;11.07;;;6.53;;
22829;SDS011;11581;51.250;6.778;2023-02-15T14:28:51;11.25;;;6.03;;
22829;SDS011;11581;51.250;6.778;2023-02-15T14:31:29;13.38;;;5.50;;
22829;SDS011;11581;51.250;6.778;2023-02-15T14:34:04;11.02;;;6.10;;
22829;SDS011;11581;51.250;6.778;2023-02-15T14:36:33;10.05;;;5.53;;
22829;SDS011;11581;51.250;6.778;2023-02-15T14:39:06;9.27;;;6.13;;
22829;SDS011;11581;51.250;6.778;2023-02-15T14:41:57;11.50;;;6.22;;
22829;SDS011;11581;51.250;6.778;2023-02-15T14:44:34;12.52;;;5.97;;
22829;SDS011;11581;51.250;6.778;2023-02-15T14:47:08;9.43;;;6.05;;
22829;SDS011;11581;51.250;6.778;2023-02-15T14:49:39;10.65;;;6.18;;
22829;SDS011;11581;51.250;6.778;2023-02-15T14:52:06;10.05;;;6.20;;
22829;SDS011;11581;51.250;6.778;2023-02-15T14:54:55;9.20;;;6.10;;
22829;SDS011;11581;51.250;6.778;2023-02-15T14:57:27;12.38;;;6.82;;
22829;SDS011;11581;51.250;6.778;2023-02-15T14:59:59;10.27;;;5.65;;
22829;SDS011;11581;51.250;6.778;2023-02-15T15:02:40;13.63;;;6.07;;
22829;SDS011;11581;51.250;6.778;2023-02-15T15:05:14;11.98;;;7.10;;
22829;SDS011;11581;51.250;6.778;2023-02-15T15:07:48;10.73;;;6.40;;
22829;SDS011;11581;51.250;6.778;2023-02-15T15:10:34;9.93;;;6.20;;
22829;SDS011;11581;51.250;6.778;2023-02-15T15:16:45;10.88;;;6.43;;
22829;SDS011;11581;51.250;6.778;2023-02-15T15:22:33;11.60;;;6.10;;
22829;SDS011;11581;51.250;6.778;2023-02-15T15:25:02;14.20;;;6.53;;
22829;SDS011;11581;51.250;6.778;2023-02-15T15:27:44;11.10;;;6.65;;
22829;SDS011;11581;51.250;6.778;2023-02-15T15:33:52;9.48;;;6.03;;